Time;durP1;ratioP1;P1;durP2;ratioP2;P2;SDS_P1;SDS_P2;PMS_P1;PMS_P2;Temp;Humidity;BMP_temperature;BMP_pressure;BME280_temperature;BME280_humidity;BME280_pressure;Samples;Min_cycle;Max_cycle;Signal;HPM_P1;HPM_P2
2022/09/10 00:01:20;;;;;;;9.95;6.00;;;;;;;;;;5006871;28;20777;-74
2022/09/10 00:03:47;;;;;;;11.15;5.95;;;;;;;;;;5015928;28;20190;-74
2022/09/10 00:06:12;;;;;;;11.88;6.15;;;;;;;;;;5010173;28;20186;-74
2022/09/10 00:08:38;;;;;;;9.48;5.18;;;;;;;;;;5009394;28;20178;-75
2022/09/10 00:11:05;;;;;;;12.45;5.50;;;;;;;;;;5015496;28;20211;-75
2022/09/10 00:13:31;;;;;;;8.38;4.78;;;;;;;;;;5010256;28;20177;-75
2022/09/10 00:15:58;;;;;;;6.43;5.60;;;;;;;;;;5013098;28;20266;-75
2022/09/10 00:18:23;;;;;;;9.57;6.03;;;;;;;;;;5015293;28;20335;-75
2022/09/10 00:20:50;;;;;;;11.18;6.55;;;;;;;;;;5012456;28;20242;-75
2022/09/10 00:23:24;;;;;;;6.57;5.50;;;;;;;;;;5009171;28;20258;-77
2022/09/10 00:25:53;;;;;;;10.23;5.90;;;;;;;;;;5011969;28;20186;-76
2022/09/10 00:28:19;;;;;;;10.70;5.47;;;;;;;;;;5008340;28;20189;-76
2022/09/10 00:30:45;;;;;;;9.20;6.72;;;;;;;;;;5012067;28;20577;-75
2022/09/10 00:33:11;;;;;;;11.00;6.50;;;;;;;;;;5018371;28;20263;-75
2022/09/10 00:35:36;;;;;;;10.30;5.68;;;;;;;;;;5005111;28;20267;-75
2022/09/10 00:38:01;;;;;;;6.78;5.72;;;;;;;;;;5014064;28;20182;-75
2022/09/10 00:40:27;;;;;;;8.80;6.90;;;;;;;;;;5006727;28;20341;-75
2022/09/10 00:42:52;;;;;;;10.80;6.38;;;;;;;;;;5009050;28;20231;-75
2022/09/10 00:45:19;;;;;;;10.00;7.45;;;;;;;;;;5003669;28;20176;-75
2022/09/10 00:47:46;;;;;;;13.75;7.95;;;;;;;;;;5006462;28;20861;-75
2022/09/10 00:50:12;;;;;;;11.55;8.00;;;;;;;;;;5008803;28;20711;-75
2022/09/10 00:52:38;;;;;;;12.68;7.90;;;;;;;;;;5016260;28;20538;-75
2022/09/10 00:55:03;;;;;;;11.80;7.47;;;;;;;;;;5013983;28;20183;-75
2022/09/10 00:57:28;;;;;;;10.68;6.97;;;;;;;;;;5010745;28;20179;-75
2022/09/10 01:00:14;;;;;;;11.57;6.53;;;;;;;;;;5009080;28;20217;-75
2022/09/10 01:02:39;;;;;;;9.25;6.93;;;;;;;;;;5008642;28;20198;-75
2022/09/10 01:05:05;;;;;;;9.27;6.68;;;;;;;;;;5011315;28;20691;-74
2022/09/10 01:07:31;;;;;;;10.77;7.10;;;;;;;;;;5010750;28;20175;-74
2022/09/10 01:09:58;;;;;;;10.15;7.38;;;;;;;;;;5001648;28;20207;-74
2022/09/10 01:12:46;;;;;;;10.40;7.68;;;;;;;;;;5006740;28;20175;-75
2022/09/10 01:15:29;;;;;;;10.15;8.02;;;;;;;;;;5001462;28;20270;-75
2022/09/10 01:18:06;;;;;;;13.90;7.43;;;;;;;;;;5009558;28;20207;-74
2022/09/10 01:20:39;;;;;;;15.98;8.10;;;;;;;;;;5007537;28;20213;-76
2022/09/10 01:23:05;;;;;;;14.23;8.50;;;;;;;;;;5012838;28;20725;-74
2022/09/10 01:25:45;;;;;;;11.27;8.57;;;;;;;;;;5006975;28;20262;-74
2022/09/10 01:28:14;;;;;;;11.60;7.60;;;;;;;;;;5007136;28;20202;-74
2022/09/10 01:30:41;;;;;;;9.63;7.13;;;;;;;;;;5012384;28;20584;-74
2022/09/10 01:33:11;;;;;;;8.98;5.30;;;;;;;;;;5001686;28;20178;-75
2022/09/10 01:35:40;;;;;;;7.95;5.70;;;;;;;;;;4996432;28;20474;-74
2022/09/10 01:38:08;;;;;;;9.48;5.45;;;;;;;;;;5014558;28;20656;-75
2022/09/10 01:40:33;;;;;;;10.32;6.28;;;;;;;;;;5010001;28;20202;-75
2022/09/10 01:43:00;;;;;;;9.27;7.60;;;;;;;;;;5011306;28;20784;-74
2022/09/10 01:45:26;;;;;;;10.07;8.27;;;;;;;;;;5007433;28;20179;-74
2022/09/10 01:48:14;;;;;;;12.75;10.23;;;;;;;;;;5014701;28;20175;-74
2022/09/10 01:50:47;;;;;;;15.75;10.23;;;;;;;;;;5022407;28;20843;-74
2022/09/10 01:53:12;;;;;;;14.35;9.77;;;;;;;;;;5012781;28;20178;-74
2022/09/10 01:55:40;;;;;;;13.38;10.77;;;;;;;;;;5022057;28;20663;-74
2022/09/10 01:58:05;;;;;;;17.42;11.82;;;;;;;;;;5019692;28;20638;-75
2022/09/10 02:00:32;;;;;;;19.38;12.23;;;;;;;;;;5004264;28;20226;-75
2022/09/10 02:03:00;;;;;;;19.20;13.05;;;;;;;;;;4981548;28;20460;-75
2022/09/10 02:05:27;;;;;;;21.50;13.15;;;;;;;;;;4985735;28;20188;-76
2022/09/10 02:07:55;;;;;;;15.65;12.55;;;;;;;;;;5000880;28;20179;-76
2022/09/10 02:10:21;;;;;;;15.70;12.57;;;;;;;;;;4994621;28;20222;-75
2022/09/10 02:12:46;;;;;;;16.38;12.85;;;;;;;;;;5011462;28;20183;-75
2022/09/10 02:15:12;;;;;;;18.58;13.52;;;;;;;;;;5012665;28;20179;-76
2022/09/10 02:17:39;;;;;;;17.55;13.38;;;;;;;;;;5012066;28;20182;-75
2022/09/10 02:20:05;;;;;;;17.15;13.55;;;;;;;;;;5023782;28;20293;-75
2022/09/10 02:22:32;;;;;;;18.48;13.07;;;;;;;;;;5009790;28;20166;-75
2022/09/10 02:24:57;;;;;;;15.50;12.63;;;;;;;;;;5010023;28;20186;-75
2022/09/10 02:27:23;;;;;;;17.02;13.25;;;;;;;;;;5011347;28;20175;-75
2022/09/10 02:29:48;;;;;;;18.85;13.65;;;;;;;;;;5011279;28;20206;-74
2022/09/10 02:32:13;;;;;;;17.42;12.57;;;;;;;;;;5010801;28;20196;-75
2022/09/10 02:34:39;;;;;;;17.10;13.35;;;;;;;;;;5019594;28;20182;-76
2022/09/10 02:37:04;;;;;;;18.73;12.57;;;;;;;;;;5017215;28;20258;-75
2022/09/10 02:39:29;;;;;;;18.80;12.63;;;;;;;;;;5004579;28;20233;-76
2022/09/10 02:41:55;;;;;;;20.90;13.50;;;;;;;;;;5017907;28;20217;-75
2022/09/10 02:44:20;;;;;;;20.85;15.32;;;;;;;;;;5015433;28;20175;-75
2022/09/10 02:46:45;;;;;;;18.95;13.98;;;;;;;;;;5011511;28;20214;-76
2022/09/10 02:49:10;;;;;;;21.10;14.65;;;;;;;;;;5017735;28;20560;-75
2022/09/10 02:51:36;;;;;;;17.67;14.48;;;;;;;;;;5015777;28;20209;-76
2022/09/10 02:54:01;;;;;;;20.67;15.45;;;;;;;;;;5011058;28;20190;-75
2022/09/10 02:56:26;;;;;;;18.48;14.75;;;;;;;;;;5011965;28;20201;-75
2022/09/10 02:58:52;;;;;;;17.52;13.85;;;;;;;;;;5006724;28;20183;-75
2022/09/10 03:01:18;;;;;;;20.77;14.48;;;;;;;;;;5005074;28;20210;-76
2022/09/10 03:03:48;;;;;;;19.67;14.55;;;;;;;;;;5009515;28;20178;-76
2022/09/10 03:06:13;;;;;;;17.80;14.82;;;;;;;;;;5014556;28;20190;-75
2022/09/10 03:08:38;;;;;;;17.67;14.55;;;;;;;;;;5012368;28;20175;-74
2022/09/10 03:11:04;;;;;;;21.20;15.30;;;;;;;;;;5012899;28;20222;-75
2022/09/10 03:13:29;;;;;;;20.92;15.18;;;;;;;;;;5011647;28;20432;-74
2022/09/10 03:15:54;;;;;;;19.38;14.80;;;;;;;;;;5008940;28;20183;-75
2022/09/10 03:18:21;;;;;;;18.52;14.35;;;;;;;;;;5010750;28;20209;-76
2022/09/10 03:20:47;;;;;;;20.40;15.55;;;;;;;;;;5000194;28;20261;-75
2022/09/10 03:23:12;;;;;;;24.08;15.48;;;;;;;;;;5015435;28;20640;-76
2022/09/10 03:25:37;;;;;;;19.30;15.93;;;;;;;;;;5011040;28;20167;-75
2022/09/10 03:28:02;;;;;;;17.33;14.23;;;;;;;;;;5011798;28;20682;-76
2022/09/10 03:30:28;;;;;;;19.35;15.27;;;;;;;;;;5009903;28;20471;-75
2022/09/10 03:32:53;;;;;;;17.83;14.40;;;;;;;;;;5017443;28;20607;-76
2022/09/10 03:35:18;;;;;;;17.90;14.65;;;;;;;;;;4999858;28;20188;-75
2022/09/10 03:37:43;;;;;;;17.37;14.80;;;;;;;;;;5012304;28;20586;-75
2022/09/10 03:40:09;;;;;;;16.53;13.83;;;;;;;;;;5011830;28;20542;-75
2022/09/10 03:42:35;;;;;;;17.48;14.07;;;;;;;;;;5011198;28;20887;-75
2022/09/10 03:45:00;;;;;;;18.17;14.27;;;;;;;;;;5011833;28;20205;-75
2022/09/10 03:47:25;;;;;;;17.48;13.88;;;;;;;;;;5014319;28;20270;-75
2022/09/10 03:49:51;;;;;;;21.60;15.07;;;;;;;;;;5016784;28;20611;-73
2022/09/10 03:52:16;;;;;;;18.75;13.85;;;;;;;;;;5000848;28;20229;-74
2022/09/10 03:54:42;;;;;;;19.95;16.20;;;;;;;;;;5012579;28;20669;-73
2022/09/10 03:57:07;;;;;;;20.15;15.00;;;;;;;;;;5010740;28;20187;-75
2022/09/10 03:59:33;;;;;;;20.42;15.57;;;;;;;;;;5011355;28;20273;-76
2022/09/10 04:01:58;;;;;;;19.73;16.05;;;;;;;;;;4997712;28;20174;-75
2022/09/10 04:04:23;;;;;;;21.03;16.27;;;;;;;;;;5002567;28;20250;-76
2022/09/10 04:06:50;;;;;;;21.52;17.10;;;;;;;;;;5011132;28;20451;-75
2022/09/10 04:09:15;;;;;;;20.00;15.50;;;;;;;;;;5009939;28;20189;-75
2022/09/10 04:11:41;;;;;;;22.77;16.80;;;;;;;;;;4999706;28;20215;-75
2022/09/10 04:14:06;;;;;;;18.00;14.63;;;;;;;;;;5010393;28;20189;-73
2022/09/10 04:16:31;;;;;;;17.35;14.32;;;;;;;;;;5014268;28;20678;-76
2022/09/10 04:18:57;;;;;;;18.10;13.88;;;;;;;;;;5009720;28;20407;-75
2022/09/10 04:21:23;;;;;;;19.90;13.93;;;;;;;;;;5003326;28;20211;-75
2022/09/10 04:23:52;;;;;;;16.25;13.85;;;;;;;;;;5007822;28;20186;-75
2022/09/10 04:26:18;;;;;;;15.10;12.20;;;;;;;;;;5009190;28;20190;-75
2022/09/10 04:28:43;;;;;;;13.82;12.13;;;;;;;;;;5007491;28;21601;-75
2022/09/10 04:31:09;;;;;;;14.27;11.52;;;;;;;;;;5016425;28;20198;-75
2022/09/10 04:33:34;;;;;;;13.13;10.68;;;;;;;;;;5015630;28;20182;-75
2022/09/10 04:35:59;;;;;;;12.82;10.65;;;;;;;;;;5010574;28;20194;-75
2022/09/10 04:38:25;;;;;;;14.15;9.90;;;;;;;;;;5017022;28;20214;-74
2022/09/10 04:40:50;;;;;;;10.70;9.30;;;;;;;;;;5010022;28;20209;-75
2022/09/10 04:43:16;;;;;;;12.52;10.18;;;;;;;;;;5010390;28;20182;-74
2022/09/10 04:45:42;;;;;;;14.15;11.45;;;;;;;;;;5009340;28;20233;-74
2022/09/10 04:48:07;;;;;;;14.43;10.32;;;;;;;;;;5023141;28;20639;-74
2022/09/10 04:50:32;;;;;;;11.30;9.75;;;;;;;;;;5009377;28;20306;-74
2022/09/10 04:52:57;;;;;;;13.90;10.73;;;;;;;;;;5001193;28;20191;-74
2022/09/10 04:55:24;;;;;;;12.87;10.30;;;;;;;;;;5006704;28;20222;-75
2022/09/10 04:57:50;;;;;;;12.40;10.73;;;;;;;;;;4991048;28;20432;-74
2022/09/10 05:00:15;;;;;;;13.68;10.68;;;;;;;;;;5006193;28;20703;-76
2022/09/10 05:02:40;;;;;;;13.48;10.68;;;;;;;;;;5019818;28;20659;-74
2022/09/10 05:05:06;;;;;;;12.70;11.23;;;;;;;;;;5022929;28;20181;-75
2022/09/10 05:07:31;;;;;;;14.25;11.30;;;;;;;;;;5013908;28;20183;-74
2022/09/10 05:09:56;;;;;;;15.35;12.13;;;;;;;;;;5014829;28;20225;-74
2022/09/10 05:12:22;;;;;;;16.33;13.45;;;;;;;;;;5012711;28;20187;-74
2022/09/10 05:14:47;;;;;;;16.88;13.80;;;;;;;;;;5004801;28;20568;-74
2022/09/10 05:17:13;;;;;;;16.35;12.82;;;;;;;;;;5021899;28;20182;-74
2022/09/10 05:19:38;;;;;;;16.52;13.35;;;;;;;;;;5023352;28;20179;-74
2022/09/10 05:22:03;;;;;;;18.00;13.93;;;;;;;;;;5012749;28;20175;-74
2022/09/10 05:24:28;;;;;;;17.25;14.40;;;;;;;;;;5013510;28;20226;-74
2022/09/10 05:26:53;;;;;;;19.10;14.88;;;;;;;;;;5017474;28;20693;-74
2022/09/10 05:29:20;;;;;;;18.70;15.00;;;;;;;;;;5013473;28;20194;-74
2022/09/10 05:31:46;;;;;;;17.92;14.55;;;;;;;;;;5011772;28;20734;-74
2022/09/10 05:34:11;;;;;;;19.40;14.10;;;;;;;;;;5020377;28;20182;-75
2022/09/10 05:36:36;;;;;;;19.00;14.00;;;;;;;;;;5016982;28;20187;-74
2022/09/10 05:39:04;;;;;;;18.40;15.02;;;;;;;;;;5012268;28;20187;-74
2022/09/10 05:41:30;;;;;;;20.33;15.52;;;;;;;;;;5011616;28;20219;-74
2022/09/10 05:43:55;;;;;;;19.83;15.70;;;;;;;;;;5017690;28;20695;-75
2022/09/10 05:46:21;;;;;;;21.10;15.48;;;;;;;;;;5011911;28;20179;-74
2022/09/10 05:48:46;;;;;;;20.05;15.45;;;;;;;;;;5018054;28;20178;-74
2022/09/10 05:51:11;;;;;;;20.08;15.43;;;;;;;;;;5017926;28;20262;-74
2022/09/10 05:53:37;;;;;;;20.27;15.55;;;;;;;;;;5005634;28;20187;-74
2022/09/10 05:56:02;;;;;;;21.77;16.15;;;;;;;;;;5008844;28;20277;-74
2022/09/10 05:58:28;;;;;;;18.10;14.95;;;;;;;;;;5015258;28;20175;-74
2022/09/10 06:00:54;;;;;;;22.58;15.45;;;;;;;;;;5015819;28;20209;-74
2022/09/10 06:03:19;;;;;;;17.07;14.50;;;;;;;;;;5015898;28;20619;-74
2022/09/10 06:05:50;;;;;;;18.20;14.48;;;;;;;;;;5011351;28;20439;-74
2022/09/10 06:08:16;;;;;;;16.38;13.13;;;;;;;;;;5002071;28;20207;-75
2022/09/10 06:10:42;;;;;;;17.50;14.20;;;;;;;;;;5012211;28;20240;-73
2022/09/10 06:13:07;;;;;;;16.25;13.20;;;;;;;;;;5014657;28;20187;-75
2022/09/10 06:15:34;;;;;;;13.77;12.25;;;;;;;;;;5009795;28;20183;-75
2022/09/10 06:18:00;;;;;;;15.48;12.50;;;;;;;;;;5019642;28;20186;-72
2022/09/10 06:20:25;;;;;;;14.80;12.07;;;;;;;;;;5012627;28;20268;-75
2022/09/10 06:22:51;;;;;;;13.43;11.98;;;;;;;;;;5012506;28;20183;-75
2022/09/10 06:25:16;;;;;;;14.43;11.45;;;;;;;;;;5012822;28;20190;-74
2022/09/10 06:27:41;;;;;;;13.30;11.32;;;;;;;;;;5012710;28;20222;-74
2022/09/10 06:30:06;;;;;;;14.65;12.20;;;;;;;;;;5015063;28;20710;-74
2022/09/10 06:32:32;;;;;;;14.00;12.27;;;;;;;;;;5013124;28;20191;-74
2022/09/10 06:34:57;;;;;;;14.35;12.02;;;;;;;;;;4996407;28;20179;-75
2022/09/10 06:37:23;;;;;;;12.57;11.17;;;;;;;;;;5015523;28;20664;-74
2022/09/10 06:39:48;;;;;;;13.95;11.38;;;;;;;;;;5013168;28;20436;-74
2022/09/10 06:42:13;;;;;;;15.50;12.15;;;;;;;;;;5012956;28;20177;-75
2022/09/10 06:44:38;;;;;;;14.82;10.90;;;;;;;;;;5000111;28;20196;-74
2022/09/10 06:47:05;;;;;;;13.07;10.82;;;;;;;;;;5008879;28;20266;-74
2022/09/10 06:49:30;;;;;;;13.30;11.40;;;;;;;;;;4999443;28;20175;-75
2022/09/10 06:51:55;;;;;;;13.43;11.85;;;;;;;;;;5009691;28;20237;-75
2022/09/10 06:54:20;;;;;;;13.48;11.88;;;;;;;;;;5010044;28;20238;-75
2022/09/10 06:56:49;;;;;;;15.02;11.55;;;;;;;;;;5010191;28;20183;-75
2022/09/10 06:59:15;;;;;;;13.77;10.60;;;;;;;;;;5015589;28;20236;-75
2022/09/10 07:01:41;;;;;;;15.35;10.85;;;;;;;;;;5011121;28;20265;-75
2022/09/10 07:04:07;;;;;;;14.52;10.63;;;;;;;;;;5017680;28;20175;-75
2022/09/10 07:06:34;;;;;;;12.32;11.20;;;;;;;;;;4997526;28;20674;-75
2022/09/10 07:08:59;;;;;;;12.38;10.68;;;;;;;;;;5011019;28;20237;-75
2022/09/10 07:11:25;;;;;;;11.27;9.82;;;;;;;;;;5010407;28;20215;-75
2022/09/10 07:13:51;;;;;;;13.15;10.13;;;;;;;;;;5016560;28;20186;-75
2022/09/10 07:16:20;;;;;;;16.33;9.90;;;;;;;;;;5010773;28;20228;-73
2022/09/10 07:18:48;;;;;;;11.60;8.75;;;;;;;;;;5010604;28;20289;-72
2022/09/10 07:21:14;;;;;;;11.70;9.48;;;;;;;;;;5000954;28;20222;-74
2022/09/10 07:23:40;;;;;;;10.25;8.07;;;;;;;;;;5005984;28;20309;-74
2022/09/10 07:26:06;;;;;;;10.25;7.00;;;;;;;;;;5008495;28;20186;-75
2022/09/10 07:28:32;;;;;;;8.23;7.38;;;;;;;;;;5011313;28;20194;-72
2022/09/10 07:30:57;;;;;;;12.18;7.82;;;;;;;;;;5011490;28;20607;-72
2022/09/10 07:33:23;;;;;;;10.57;7.60;;;;;;;;;;5008484;28;20305;-72
2022/09/10 07:35:48;;;;;;;10.00;6.38;;;;;;;;;;5018705;28;20178;-74
2022/09/10 07:38:15;;;;;;;12.80;6.70;;;;;;;;;;5021209;28;20181;-72
2022/09/10 07:40:42;;;;;;;8.60;5.88;;;;;;;;;;5012866;28;20199;-71
2022/09/10 07:43:07;;;;;;;7.40;5.32;;;;;;;;;;4994992;28;20641;-72
2022/09/10 07:45:32;;;;;;;8.20;5.37;;;;;;;;;;5008009;28;20201;-72
2022/09/10 07:47:58;;;;;;;5.20;4.70;;;;;;;;;;5018411;28;20514;-72
2022/09/10 07:50:23;;;;;;;5.67;4.27;;;;;;;;;;5012836;28;20214;-72
2022/09/10 07:52:48;;;;;;;5.53;4.60;;;;;;;;;;5009143;28;20520;-72
2022/09/10 07:55:13;;;;;;;4.25;3.10;;;;;;;;;;5011765;28;20270;-74
2022/09/10 07:57:39;;;;;;;6.00;3.17;;;;;;;;;;5009112;28;20179;-71
2022/09/10 08:00:05;;;;;;;4.40;2.53;;;;;;;;;;5021668;28;20205;-72
2022/09/10 08:02:30;;;;;;;5.85;2.58;;;;;;;;;;4989353;28;20172;-71
2022/09/10 08:04:55;;;;;;;3.47;2.87;;;;;;;;;;5015104;28;20175;-72
2022/09/10 08:07:21;;;;;;;5.70;2.00;;;;;;;;;;5015080;28;20860;-71
2022/09/10 08:09:47;;;;;;;2.45;2.03;;;;;;;;;;5009158;28;20451;-71
2022/09/10 08:12:12;;;;;;;4.80;2.30;;;;;;;;;;5007273;28;20261;-72
2022/09/10 08:14:37;;;;;;;3.30;1.45;;;;;;;;;;5014623;28;20273;-71
2022/09/10 08:17:03;;;;;;;4.60;1.65;;;;;;;;;;5012790;28;20225;-72
2022/09/10 08:19:28;;;;;;;2.55;1.52;;;;;;;;;;5019933;28;20202;-72
2022/09/10 08:21:55;;;;;;;5.38;1.60;;;;;;;;;;5013987;28;20210;-71
2022/09/10 08:24:20;;;;;;;2.83;1.48;;;;;;;;;;5013959;28;20531;-71
2022/09/10 08:26:45;;;;;;;2.70;1.60;;;;;;;;;;5013752;28;20205;-71
2022/09/10 08:29:10;;;;;;;4.10;1.67;;;;;;;;;;4999912;28;20170;-72
2022/09/10 08:31:36;;;;;;;4.27;1.43;;;;;;;;;;5010065;28;20961;-71
2022/09/10 08:34:01;;;;;;;2.58;1.90;;;;;;;;;;5012510;28;20443;-72
2022/09/10 08:36:26;;;;;;;4.25;2.30;;;;;;;;;;5016405;28;20179;-71
2022/09/10 08:38:52;;;;;;;4.53;3.07;;;;;;;;;;4996506;28;20195;-71
2022/09/10 08:41:34;;;;;;;4.13;3.20;;;;;;;;;;5005493;28;20459;-71
2022/09/10 08:44:08;;;;;;;5.43;3.08;;;;;;;;;;4994334;28;20590;-72
2022/09/10 08:46:47;;;;;;;3.72;2.40;;;;;;;;;;5011337;28;20181;-71
2022/09/10 08:49:25;;;;;;;3.35;3.03;;;;;;;;;;4995002;28;20197;-74
2022/09/10 08:51:56;;;;;;;4.20;3.05;;;;;;;;;;5005051;28;20213;-72
2022/09/10 08:54:26;;;;;;;4.75;3.72;;;;;;;;;;5010139;28;20271;-74
2022/09/10 08:56:53;;;;;;;6.00;4.00;;;;;;;;;;5015020;28;20258;-72
2022/09/10 08:59:20;;;;;;;5.40;3.47;;;;;;;;;;5009235;28;20675;-72
2022/09/10 09:02:08;;;;;;;5.88;3.22;;;;;;;;;;5014264;28;20723;-72
2022/09/10 09:04:33;;;;;;;6.68;4.00;;;;;;;;;;5018692;28;20182;-72
2022/09/10 09:07:01;;;;;;;4.75;3.05;;;;;;;;;;5009225;28;20171;-72
2022/09/10 09:09:26;;;;;;;3.22;2.88;;;;;;;;;;5007236;28;20186;-71
2022/09/10 09:12:05;;;;;;;3.53;3.00;;;;;;;;;;5012412;28;20191;-71
2022/09/10 09:14:36;;;;;;;4.47;2.92;;;;;;;;;;5016534;28;20180;-71
2022/09/10 09:17:20;;;;;;;5.32;3.20;;;;;;;;;;5010476;28;20186;-71
2022/09/10 09:20:04;;;;;;;5.40;3.20;;;;;;;;;;5009986;28;20261;-71
2022/09/10 09:22:50;;;;;;;5.55;3.10;;;;;;;;;;4979637;28;20266;-71
2022/09/10 09:25:23;;;;;;;2.95;2.28;;;;;;;;;;5001830;28;20184;-72
2022/09/10 09:27:54;;;;;;;5.60;2.53;;;;;;;;;;5008349;28;20178;-71
2022/09/10 09:30:22;;;;;;;5.55;2.90;;;;;;;;;;4994712;28;20211;-71
2022/09/10 09:32:47;;;;;;;3.33;2.40;;;;;;;;;;5009259;28;20615;-70
2022/09/10 09:35:22;;;;;;;3.47;1.90;;;;;;;;;;5008317;28;20187;-72
2022/09/10 09:37:49;;;;;;;4.13;1.48;;;;;;;;;;5020928;28;20186;-72
2022/09/10 09:40:29;;;;;;;3.38;1.48;;;;;;;;;;5021934;28;20712;-71
2022/09/10 09:42:57;;;;;;;1.73;1.40;;;;;;;;;;5021608;28;20174;-72
2022/09/10 09:45:38;;;;;;;1.42;1.17;;;;;;;;;;5012015;28;20170;-72
2022/09/10 09:48:10;;;;;;;2.38;1.20;;;;;;;;;;5017073;28;20739;-74
2022/09/10 09:50:37;;;;;;;2.47;1.73;;;;;;;;;;5017285;28;20210;-72
2022/09/10 09:53:02;;;;;;;1.80;1.30;;;;;;;;;;5006341;28;20194;-72
2022/09/10 09:55:40;;;;;;;1.48;1.25;;;;;;;;;;5005704;28;20183;-72
2022/09/10 09:58:20;;;;;;;2.15;1.95;;;;;;;;;;5016575;28;20166;-70
2022/09/10 10:00:53;;;;;;;2.50;1.77;;;;;;;;;;5013304;28;20474;-71
2022/09/10 10:03:24;;;;;;;3.10;1.60;;;;;;;;;;5017069;28;20186;-70
2022/09/10 10:05:49;;;;;;;1.70;1.60;;;;;;;;;;5010193;28;20217;-71
2022/09/10 10:08:36;;;;;;;2.88;2.00;;;;;;;;;;5017987;28;20187;-71
2022/09/10 10:11:02;;;;;;;3.40;2.65;;;;;;;;;;5013255;28;20704;-70
2022/09/10 10:13:36;;;;;;;3.05;2.40;;;;;;;;;;5024402;28;20213;-71
2022/09/10 10:16:13;;;;;;;3.20;2.85;;;;;;;;;;5012643;28;20179;-70
2022/09/10 10:18:40;;;;;;;3.28;2.10;;;;;;;;;;5019307;28;20719;-70
2022/09/10 10:21:38;;;;;;;2.30;1.67;;;;;;;;;;5024591;28;20579;-70
2022/09/10 10:24:04;;;;;;;3.67;1.77;;;;;;;;;;4975391;28;20194;-70
2022/09/10 10:26:33;;;;;;;1.90;1.70;;;;;;;;;;5021366;28;20467;-71
2022/09/10 10:29:06;;;;;;;2.10;1.50;;;;;;;;;;5025901;28;20257;-70
2022/09/10 10:31:42;;;;;;;4.28;1.80;;;;;;;;;;5007807;28;20202;-70
2022/09/10 10:34:22;;;;;;;2.25;1.67;;;;;;;;;;5012975;28;20644;-70
2022/09/10 10:36:58;;;;;;;2.05;1.70;;;;;;;;;;5021737;28;20186;-70
2022/09/10 10:39:42;;;;;;;3.60;2.45;;;;;;;;;;5027479;28;20178;-70
2022/09/10 10:42:07;;;;;;;4.90;2.92;;;;;;;;;;5012114;28;20183;-70
2022/09/10 10:44:32;;;;;;;3.08;2.55;;;;;;;;;;5020824;28;20182;-70
2022/09/10 10:47:18;;;;;;;2.23;2.03;;;;;;;;;;5016545;28;20194;-71
2022/09/10 10:49:50;;;;;;;3.00;2.28;;;;;;;;;;5014517;28;20232;-70
2022/09/10 10:52:34;;;;;;;2.83;2.40;;;;;;;;;;5008153;28;20270;-71
2022/09/10 10:55:02;;;;;;;2.85;2.65;;;;;;;;;;5003136;28;20376;-70
2022/09/10 10:57:27;;;;;;;4.50;3.45;;;;;;;;;;5019308;28;20644;-70
2022/09/10 11:00:06;;;;;;;3.30;3.00;;;;;;;;;;5010833;28;20214;-70
2022/09/10 11:02:39;;;;;;;3.28;2.90;;;;;;;;;;5021539;28;20415;-70
2022/09/10 11:05:15;;;;;;;3.33;2.80;;;;;;;;;;5022149;28;20379;-70
2022/09/10 11:07:42;;;;;;;2.45;2.25;;;;;;;;;;5021039;28;20190;-70
2022/09/10 11:10:25;;;;;;;3.45;2.92;;;;;;;;;;5012027;28;20243;-71
2022/09/10 11:13:02;;;;;;;3.90;2.65;;;;;;;;;;5009906;28;20187;-70
2022/09/10 11:15:33;;;;;;;2.75;2.55;;;;;;;;;;5018850;28;20277;-71
2022/09/10 11:18:19;;;;;;;2.85;2.40;;;;;;;;;;5011546;28;20179;-70
2022/09/10 11:21:03;;;;;;;2.28;2.08;;;;;;;;;;5010648;28;20652;-71
2022/09/10 11:23:48;;;;;;;2.20;2.00;;;;;;;;;;5012537;28;20250;-72
2022/09/10 11:26:16;;;;;;;2.33;1.50;;;;;;;;;;5009307;28;20209;-71
2022/09/10 11:29:01;;;;;;;2.10;1.88;;;;;;;;;;5027650;28;20179;-71
2022/09/10 11:31:29;;;;;;;2.28;1.90;;;;;;;;;;5021199;28;20222;-72
2022/09/10 11:33:56;;;;;;;1.90;1.80;;;;;;;;;;5024868;28;20658;-71
2022/09/10 11:36:28;;;;;;;2.47;1.90;;;;;;;;;;5020405;28;20656;-71
2022/09/10 11:39:12;;;;;;;2.05;1.75;;;;;;;;;;4994562;28;20189;-71
2022/09/10 11:41:41;;;;;;;1.88;1.42;;;;;;;;;;5011694;28;20206;-71
2022/09/10 11:44:09;;;;;;;1.60;1.50;;;;;;;;;;5019423;28;20182;-71
2022/09/10 11:46:37;;;;;;;4.35;1.35;;;;;;;;;;5004244;28;20218;-71
2022/09/10 11:49:09;;;;;;;1.67;1.08;;;;;;;;;;5017531;28;20653;-71
2022/09/10 11:51:38;;;;;;;1.67;1.05;;;;;;;;;;5011321;28;20206;-71
2022/09/10 11:54:15;;;;;;;1.35;1.23;;;;;;;;;;5005514;28;20195;-71
2022/09/10 11:56:53;;;;;;;2.08;1.40;;;;;;;;;;5009721;28;20645;-71
2022/09/10 11:59:24;;;;;;;1.65;1.42;;;;;;;;;;5016905;28;20183;-71
2022/09/10 12:01:56;;;;;;;1.40;1.30;;;;;;;;;;5022590;28;20208;-71
2022/09/10 12:04:27;;;;;;;2.75;1.30;;;;;;;;;;5020931;28;20206;-71
2022/09/10 12:06:52;;;;;;;1.88;1.25;;;;;;;;;;5023128;28;20174;-71
2022/09/10 12:09:27;;;;;;;1.85;1.48;;;;;;;;;;5008178;28;20179;-71
2022/09/10 12:11:58;;;;;;;1.33;1.23;;;;;;;;;;5013067;28;20201;-71
2022/09/10 12:14:23;;;;;;;2.95;1.20;;;;;;;;;;5011072;28;20213;-71
2022/09/10 12:16:57;;;;;;;1.75;1.23;;;;;;;;;;5004559;28;20183;-72
2022/09/10 12:19:28;;;;;;;1.73;1.63;;;;;;;;;;5010450;28;20179;-72
2022/09/10 12:22:19;;;;;;;2.33;1.50;;;;;;;;;;5010263;28;20199;-71
2022/09/10 12:24:53;;;;;;;1.92;1.50;;;;;;;;;;5007894;28;20191;-71
2022/09/10 12:27:19;;;;;;;1.70;1.60;;;;;;;;;;5005019;28;20175;-71
2022/09/10 12:29:44;;;;;;;1.35;1.20;;;;;;;;;;5006503;28;21621;-72
2022/09/10 12:32:11;;;;;;;1.52;1.20;;;;;;;;;;4998340;28;20175;-71
2022/09/10 12:34:36;;;;;;;1.50;1.25;;;;;;;;;;5009750;28;20699;-71
2022/09/10 12:37:02;;;;;;;1.45;1.35;;;;;;;;;;5005469;28;20167;-71
2022/09/10 12:39:27;;;;;;;2.13;1.27;;;;;;;;;;5010591;28;20175;-71
2022/09/10 12:41:55;;;;;;;1.25;1.15;;;;;;;;;;5017997;28;20675;-71
2022/09/10 12:44:29;;;;;;;1.30;1.20;;;;;;;;;;5010124;28;20233;-70
2022/09/10 12:47:17;;;;;;;2.58;1.45;;;;;;;;;;5006065;28;20197;-71
2022/09/10 12:49:48;;;;;;;2.03;1.13;;;;;;;;;;5012024;28;20261;-70
2022/09/10 12:52:33;;;;;;;1.50;1.35;;;;;;;;;;5009883;28;20188;-70
2022/09/10 12:54:58;;;;;;;1.13;1.00;;;;;;;;;;5008622;28;20179;-71
2022/09/10 12:57:23;;;;;;;1.87;1.60;;;;;;;;;;5010376;28;20241;-71
2022/09/10 12:59:51;;;;;;;3.57;1.50;;;;;;;;;;5017833;28;20194;-71
2022/09/10 13:02:19;;;;;;;1.45;1.35;;;;;;;;;;5012598;28;20637;-72
2022/09/10 13:04:51;;;;;;;2.40;1.48;;;;;;;;;;5011179;28;20175;-71
2022/09/10 13:07:21;;;;;;;1.70;1.25;;;;;;;;;;5014233;28;20241;-71
2022/09/10 13:09:55;;;;;;;1.63;1.50;;;;;;;;;;5013308;28;20206;-71
2022/09/10 13:12:21;;;;;;;2.05;1.42;;;;;;;;;;5005379;28;20199;-71
2022/09/10 13:14:48;;;;;;;2.90;1.90;;;;;;;;;;5016985;28;20605;-71
2022/09/10 13:17:33;;;;;;;2.45;1.70;;;;;;;;;;5008044;28;20203;-71
2022/09/10 13:20:11;;;;;;;1.83;1.27;;;;;;;;;;5011146;28;20203;-71
2022/09/10 13:22:52;;;;;;;1.70;1.25;;;;;;;;;;5014373;28;20274;-72
2022/09/10 13:25:26;;;;;;;1.88;1.60;;;;;;;;;;5010070;28;20179;-72
2022/09/10 13:27:51;;;;;;;1.65;1.38;;;;;;;;;;5021705;28;20193;-71
2022/09/10 13:30:20;;;;;;;1.52;1.40;;;;;;;;;;5015916;28;20199;-71
2022/09/10 13:32:48;;;;;;;1.85;1.60;;;;;;;;;;5016723;28;20187;-71
2022/09/10 13:35:16;;;;;;;2.25;1.23;;;;;;;;;;5009461;28;20205;-71
2022/09/10 13:37:59;;;;;;;1.80;1.52;;;;;;;;;;5015234;28;20186;-71
2022/09/10 13:40:30;;;;;;;1.85;1.20;;;;;;;;;;5013807;28;20215;-71
2022/09/10 13:43:06;;;;;;;2.75;1.85;;;;;;;;;;5012111;28;20268;-71
2022/09/10 13:45:39;;;;;;;2.35;1.70;;;;;;;;;;5016530;28;20170;-72
2022/09/10 13:48:05;;;;;;;2.10;1.90;;;;;;;;;;5010847;28;20210;-71
2022/09/10 13:50:45;;;;;;;2.50;1.50;;;;;;;;;;5017701;28;20622;-71
2022/09/10 13:53:12;;;;;;;1.77;1.52;;;;;;;;;;5015340;28;20178;-71
2022/09/10 13:55:39;;;;;;;3.05;1.45;;;;;;;;;;4998312;28;20635;-70
2022/09/10 13:58:09;;;;;;;1.30;1.20;;;;;;;;;;5008981;28;20183;-71
2022/09/10 14:00:40;;;;;;;1.88;1.67;;;;;;;;;;5011364;28;20738;-71
2022/09/10 14:03:12;;;;;;;2.10;1.50;;;;;;;;;;5011136;28;20185;-71
2022/09/10 14:05:48;;;;;;;1.35;1.20;;;;;;;;;;5016963;28;20183;-72
2022/09/10 14:08:23;;;;;;;2.28;1.17;;;;;;;;;;5010442;28;20209;-71
2022/09/10 14:10:51;;;;;;;2.10;1.83;;;;;;;;;;5014205;28;20226;-71
2022/09/10 14:13:21;;;;;;;2.53;1.70;;;;;;;;;;4989978;28;20540;-72
2022/09/10 14:15:48;;;;;;;1.83;1.60;;;;;;;;;;5015594;28;20187;-72
2022/09/10 14:18:13;;;;;;;1.75;1.65;;;;;;;;;;5024633;28;20274;-71
2022/09/10 14:20:38;;;;;;;3.40;1.90;;;;;;;;;;5015947;28;20239;-72
2022/09/10 14:23:05;;;;;;;2.30;1.45;;;;;;;;;;5013584;28;20416;-72
2022/09/10 14:25:35;;;;;;;2.67;1.35;;;;;;;;;;5021925;28;20175;-72
2022/09/10 14:28:15;;;;;;;2.67;1.73;;;;;;;;;;5010621;28;20175;-71
2022/09/10 14:30:44;;;;;;;2.30;1.50;;;;;;;;;;5018994;28;20248;-72
2022/09/10 14:33:30;;;;;;;1.98;1.60;;;;;;;;;;5011060;28;20187;-71
2022/09/10 14:35:57;;;;;;;2.28;1.85;;;;;;;;;;5015420;28;20209;-71
2022/09/10 14:38:35;;;;;;;1.45;1.35;;;;;;;;;;5008096;28;20175;-71
2022/09/10 14:41:02;;;;;;;1.83;1.30;;;;;;;;;;5011329;28;20486;-71